UACCLTBS

Guest
Details From UACC - Astana Intl
To LTBS - Dalaman
Flight Number -
Tags Generated
Created
Modified
Stats Distance 2,003 nm / 3,710 km
Max Altitude 0 ft / 0 m
Waypoints 6
Social Downloads 0
Likes 0
Share VATSIM

Download

Looking for another format? Having issues loading an existing format? Contact us
Advertisement - Login to hide

Notes

Generated

Route

UACC KUSOT ALMAR CRM DAL05 LTBS

ID Type Via Altitude Latitude Longitude Leg Dist Tot Dist Heading (true) Name
O UACC APT - 0 ft / 0 m 51.01097˚ 71.44957˚ - 0 nm - -
KUSOT FIX - 0 ft / 0 m 50.35778˚ 65.85278˚ 216 nm 216 nm 262° / 257° -
ALMAR FIX - 0 ft / 0 m 45.21667˚ 45.21667˚ 884 nm 1101 nm 258° / 242° -
CRM VOR - 0 ft / 0 m 41.26550˚ 36.54887˚ 446 nm 1548 nm 241° / 235° CARSAMBA VOR-DME
DAL05 FIX - 0 ft / 0 m 36.77057˚ 28.80704˚ 450 nm 1998 nm 236° / 231° -
O LTBS APT - 0 ft / 0 m 36.70016˚ 28.78809˚ 4 nm 2003 nm 192° / 192° -

Altitude Profile

Advertisement - Login to hide

Weather


0- 5 10 15 20 25 30 35+ Temperature / ° C

Clouds and Precipitation
Forecast for 2017-12-16 12:00 UTC. Updated 2 hours ago

Ground ~20,000 ft ~40,000 ft Winds

UACC

Details ICAO UACC (TSE)
Name Astana INTL
Region Kazakhstan and Kyrgyzstan
Timezone Asia/Almaty (UTC+6.0)
Stats Elevation 1,165 ft / 355 m (AMSL)
Location 51.022180° 71.467062°
Runways 1
Magnetic Variation 9.843° E

METAR

UACC 160900Z 07002MPS 060V120 CAVOK M11/M17 Q1039 R04/85//60 NOSIG RMK QFE747/0996

Decode

TAF

TAF UACC 160500Z 1606/1706 08005MPS 9999 NSC TXM11/1609Z TNM24/1701Z TEMPO 1617/1704 3000 BR SCT006

Decode

Departure Runways

ID Width Length Bearing (true) Bearing (mag) Surface Threshold Offset Overrun Length
04 148 ft / 45 m 11,467 ft / 3,495 m 44.45° 34.61° Asphalt 0 ft / 0 m 0 ft / 0 m
22 148 ft / 45 m 11,467 ft / 3,495 m 224.48° 214.64° Asphalt 0 ft / 0 m 0 ft / 0 m

LTBS

Details ICAO LTBS (DLM)
Name DALAMAN
Region Turkey
Timezone Europe/Istanbul (UTC+3.0)
Stats Elevation 20 ft / 6 m (AMSL)
Location 36.713189° 28.792513°
Runways 1
Magnetic Variation 4.880° E

METAR

LTBS 160850Z 15006KT 120V180 9999 -SHRA SCT030 BKN080 18/11 Q1020 NOSIG

Decode

TAF

Not found

Destination Runways

ID Width Length Bearing (true) Bearing (mag) Surface Threshold Offset Overrun Length
01 148 ft / 45 m 9,851 ft / 3,003 m 15.24° 10.36° Concrete 0 ft / 0 m 197 ft / 60 m
19 148 ft / 45 m 9,851 ft / 3,003 m 195.25° 190.37° Concrete 0 ft / 0 m 197 ft / 60 m